createdAt,value
2022-07-26T00:01:18.455Z,2.35
2022-07-26T00:03:45.707Z,2.50
2022-07-26T00:06:12.322Z,2.65
2022-07-26T00:08:41.654Z,2.90
2022-07-26T00:11:08.554Z,3.33
2022-07-26T00:13:35.656Z,2.60
2022-07-26T00:16:03.934Z,2.63
2022-07-26T00:18:31.641Z,2.90
2022-07-26T00:20:58.504Z,3.33
2022-07-26T00:23:25.407Z,2.80
2022-07-26T00:25:52.069Z,2.65
2022-07-26T00:28:18.637Z,3.07
2022-07-26T00:30:46.566Z,2.92
2022-07-26T00:33:13.283Z,3.33
2022-07-26T00:35:45.842Z,2.90
2022-07-26T00:38:12.440Z,3.10
2022-07-26T00:40:45.552Z,3.73
2022-07-26T00:43:12.136Z,3.00
2022-07-26T00:45:41.722Z,3.53
2022-07-26T00:48:08.478Z,3.28
2022-07-26T00:50:35.212Z,3.90
2022-07-26T00:53:01.962Z,3.37
2022-07-26T00:55:28.761Z,3.35
2022-07-26T00:57:55.378Z,3.97
2022-07-26T01:00:27.749Z,3.70
2022-07-26T01:02:55.802Z,3.30
2022-07-26T01:05:23.508Z,3.57
2022-07-26T01:07:50.237Z,3.45
2022-07-26T01:10:18.510Z,3.60
2022-07-26T01:12:45.338Z,3.50
2022-07-26T01:15:13.976Z,3.55
2022-07-26T01:17:41.862Z,3.90
2022-07-26T01:20:10.144Z,3.40
2022-07-26T01:22:37.070Z,3.83
2022-07-26T01:25:04.850Z,3.63
2022-07-26T01:27:34.236Z,4.00
2022-07-26T01:30:01.076Z,3.80
2022-07-26T01:32:27.741Z,3.78
2022-07-26T01:34:54.338Z,3.58
2022-07-26T01:37:20.913Z,3.42
2022-07-26T01:39:47.485Z,3.30
2022-07-26T01:42:14.024Z,2.67
2022-07-26T01:44:40.770Z,2.80
2022-07-26T01:47:07.431Z,3.15
2022-07-26T01:49:34.765Z,3.08
2022-07-26T01:52:01.793Z,3.35
2022-07-26T01:54:28.438Z,3.20
2022-07-26T01:56:55.074Z,3.20
2022-07-26T01:59:21.987Z,3.22
2022-07-26T02:01:48.724Z,3.10
2022-07-26T02:04:34.819Z,3.33
2022-07-26T02:07:05.294Z,3.13
2022-07-26T02:09:38.103Z,3.60
2022-07-26T02:12:07.114Z,3.72
2022-07-26T02:14:35.251Z,3.42
2022-07-26T02:17:02.384Z,3.60
2022-07-26T02:19:29.768Z,3.70
2022-07-26T02:21:57.099Z,3.58
2022-07-26T02:24:24.223Z,3.78
2022-07-26T02:26:50.904Z,4.00
2022-07-26T02:29:17.518Z,3.78
2022-07-26T02:31:48.245Z,3.57
2022-07-26T02:34:15.223Z,3.95
2022-07-26T02:36:41.845Z,3.53
2022-07-26T02:39:08.520Z,3.22
2022-07-26T02:41:36.234Z,3.45
2022-07-26T02:44:02.939Z,3.70
2022-07-26T02:46:29.537Z,3.90
2022-07-26T02:48:56.173Z,3.60
2022-07-26T02:51:22.774Z,4.13
2022-07-26T02:53:49.313Z,3.63
2022-07-26T02:56:15.926Z,3.33
2022-07-26T02:58:42.584Z,3.40
2022-07-26T03:01:09.261Z,3.85
2022-07-26T03:03:38.723Z,3.45
2022-07-26T03:06:05.438Z,3.80
2022-07-26T03:08:33.083Z,3.83
2022-07-26T03:11:00.821Z,3.78
2022-07-26T03:13:27.529Z,3.78
2022-07-26T03:15:54.220Z,3.58
2022-07-26T03:18:20.863Z,3.78
2022-07-26T03:20:48.037Z,3.60
2022-07-26T03:23:14.647Z,4.00
2022-07-26T03:25:41.489Z,3.75
2022-07-26T03:28:08.223Z,3.78
2022-07-26T03:30:36.153Z,3.63
2022-07-26T03:33:02.956Z,4.00
2022-07-26T03:35:29.745Z,3.60
2022-07-26T03:38:03.141Z,3.95
2022-07-26T03:40:29.743Z,3.90
2022-07-26T03:42:56.501Z,3.92
2022-07-26T03:45:23.657Z,3.87
2022-07-26T03:47:50.310Z,3.63
2022-07-26T03:50:16.917Z,3.72
2022-07-26T03:52:43.595Z,3.90
2022-07-26T03:55:43.267Z,3.47
2022-07-26T03:58:09.863Z,3.33
2022-07-26T04:00:37.430Z,3.50
2022-07-26T04:03:04.167Z,3.45
2022-07-26T04:05:30.756Z,3.40
2022-07-26T04:07:57.946Z,3.92
2022-07-26T04:10:25.915Z,3.17
2022-07-26T04:12:52.563Z,3.58
2022-07-26T04:15:21.007Z,3.72
2022-07-26T04:17:50.938Z,3.58
2022-07-26T04:20:18.108Z,3.85
2022-07-26T04:22:45.143Z,3.80
2022-07-26T04:25:11.785Z,3.38
2022-07-26T04:27:41.299Z,3.60
2022-07-26T04:30:14.511Z,3.35
2022-07-26T04:32:42.316Z,3.42
2022-07-26T04:35:09.546Z,3.10
2022-07-26T04:37:43.227Z,3.08
2022-07-26T04:40:11.858Z,3.28
2022-07-26T04:42:40.049Z,3.15
2022-07-26T04:45:08.716Z,3.30
2022-07-26T04:47:35.599Z,3.03
2022-07-26T04:50:03.807Z,2.95
2022-07-26T04:52:30.868Z,3.17
2022-07-26T04:54:57.426Z,3.05
2022-07-26T04:57:23.992Z,3.53
2022-07-26T05:00:09.990Z,3.10
2022-07-26T05:02:39.235Z,3.20
2022-07-26T05:05:07.051Z,2.92
2022-07-26T05:07:41.497Z,3.30
2022-07-26T05:10:09.144Z,3.00
2022-07-26T05:12:35.744Z,3.23
2022-07-26T05:15:04.529Z,3.28
2022-07-26T05:17:31.425Z,2.92
2022-07-26T05:20:03.387Z,3.47
2022-07-26T05:22:30.234Z,3.30
2022-07-26T05:24:56.826Z,3.40
2022-07-26T05:27:23.389Z,3.10
2022-07-26T05:29:49.933Z,3.53
2022-07-26T05:32:16.768Z,3.45
2022-07-26T05:34:43.325Z,3.45
2022-07-26T05:37:10.225Z,3.57
2022-07-26T05:39:37.532Z,3.65
2022-07-26T05:42:04.241Z,4.10
2022-07-26T05:44:30.856Z,3.97
2022-07-26T05:46:57.587Z,3.95
2022-07-26T05:49:25.992Z,3.83
2022-07-26T05:51:55.879Z,3.92
2022-07-26T05:54:24.745Z,3.72
2022-07-26T05:56:51.319Z,3.90
2022-07-26T05:59:17.854Z,3.92
2022-07-26T06:01:44.483Z,4.00
2022-07-26T06:04:11.395Z,4.00
2022-07-26T06:06:38.580Z,4.53
2022-07-26T06:09:05.159Z,3.80
2022-07-26T06:11:32.112Z,4.13
2022-07-26T06:13:58.693Z,4.17
2022-07-26T06:16:25.235Z,2.80
2022-07-26T06:18:51.787Z,2.00
2022-07-26T06:21:18.358Z,1.90
2022-07-26T06:23:44.960Z,1.50
2022-07-26T06:26:12.263Z,1.43
2022-07-26T06:28:39.476Z,1.70
2022-07-26T06:31:06.316Z,1.42
2022-07-26T06:33:32.895Z,1.50
2022-07-26T06:35:59.516Z,1.70
2022-07-26T06:38:26.280Z,0.90
2022-07-26T06:40:52.881Z,1.30
2022-07-26T06:43:19.580Z,1.10
2022-07-26T06:45:46.315Z,1.90
2022-07-26T06:48:14.307Z,1.77
2022-07-26T06:50:41.869Z,2.00
2022-07-26T06:53:08.426Z,1.60
2022-07-26T06:55:34.952Z,1.67
2022-07-26T06:58:01.571Z,2.00
2022-07-26T07:00:28.297Z,1.60
2022-07-26T07:02:54.884Z,2.37
2022-07-26T07:05:21.629Z,1.90
2022-07-26T07:07:48.271Z,2.17
2022-07-26T07:10:15.333Z,1.70
2022-07-26T07:12:44.931Z,1.70
2022-07-26T07:15:12.485Z,2.00
2022-07-26T07:17:39.211Z,1.92
2022-07-26T07:20:06.301Z,1.70
2022-07-26T07:22:33.063Z,1.77
2022-07-26T07:25:00.783Z,1.70
2022-07-26T07:27:29.621Z,2.07
2022-07-26T07:29:56.186Z,2.25
2022-07-26T07:32:22.937Z,2.53
2022-07-26T07:34:51.462Z,2.88
2022-07-26T07:37:20.128Z,3.13
2022-07-26T07:39:50.182Z,2.70
2022-07-26T07:42:17.481Z,2.40
2022-07-26T07:44:44.781Z,2.72
2022-07-26T07:47:11.479Z,2.90
2022-07-26T07:49:38.173Z,2.60
2022-07-26T07:52:05.438Z,2.50
2022-07-26T07:54:32.085Z,2.55
2022-07-26T07:56:58.971Z,2.80
2022-07-26T07:59:25.791Z,3.17
2022-07-26T08:01:52.780Z,2.88
2022-07-26T08:04:19.721Z,2.10
2022-07-26T08:06:51.391Z,2.20
2022-07-26T08:09:19.286Z,1.17
2022-07-26T08:11:50.745Z,1.10
2022-07-26T08:14:18.565Z,0.93
2022-07-26T08:16:45.294Z,1.30
2022-07-26T08:19:19.407Z,1.50
2022-07-26T08:21:49.475Z,1.42
2022-07-26T08:24:30.030Z,1.60
2022-07-26T08:26:56.890Z,1.60
2022-07-26T08:29:25.956Z,2.10
2022-07-26T08:31:55.715Z,1.83
2022-07-26T08:34:31.914Z,1.77
2022-07-26T08:37:18.674Z,1.60
2022-07-26T08:40:05.777Z,1.42
2022-07-26T08:42:38.319Z,1.67
2022-07-26T08:45:11.430Z,0.88
2022-07-26T08:48:00.771Z,1.02
2022-07-26T08:50:34.115Z,1.00
2022-07-26T08:53:04.129Z,1.00
2022-07-26T08:56:04.373Z,0.97
2022-07-26T08:58:28.808Z,1.00
2022-07-26T09:01:15.891Z,0.93
2022-07-26T09:04:13.547Z,1.70
2022-07-26T09:06:53.878Z,1.25
2022-07-26T09:09:24.010Z,0.90
2022-07-26T09:11:53.131Z,0.88
2022-07-26T09:15:07.954Z,1.20
2022-07-26T09:17:51.983Z,1.00
2022-07-26T09:20:28.588Z,1.00
2022-07-26T09:23:30.081Z,0.77
2022-07-26T09:26:15.701Z,0.60
2022-07-26T09:28:53.710Z,0.98
2022-07-26T09:31:24.420Z,0.80
2022-07-26T09:33:56.504Z,1.02
2022-07-26T09:36:27.771Z,1.00
2022-07-26T09:39:09.764Z,1.10
2022-07-26T09:41:37.984Z,1.10
2022-07-26T09:44:47.845Z,1.17
2022-07-26T09:47:35.085Z,1.52
2022-07-26T09:50:19.731Z,0.93
2022-07-26T09:53:13.315Z,1.45
2022-07-26T09:55:50.321Z,1.30
2022-07-26T09:58:19.889Z,1.70
2022-07-26T10:01:08.392Z,1.15
2022-07-26T10:03:36.196Z,1.10
2022-07-26T10:06:09.590Z,1.10
2022-07-26T10:08:41.131Z,0.98
2022-07-26T10:11:17.366Z,0.90
2022-07-26T10:13:53.119Z,1.02
2022-07-26T10:16:34.594Z,1.00
2022-07-26T10:19:09.862Z,1.10
2022-07-26T10:21:36.632Z,0.90
2022-07-26T10:24:13.271Z,0.90
2022-07-26T10:26:44.608Z,1.00
2022-07-26T10:29:17.518Z,0.80
2022-07-26T10:32:17.775Z,0.85
2022-07-26T10:34:45.081Z,0.63
2022-07-26T10:37:24.929Z,0.73
2022-07-26T10:40:19.016Z,0.90
2022-07-26T10:42:49.160Z,0.93
2022-07-26T10:45:23.800Z,0.82
2022-07-26T10:48:21.952Z,1.10
2022-07-26T10:50:57.344Z,1.20
2022-07-26T10:53:27.740Z,1.33
2022-07-26T10:55:58.463Z,0.90
2022-07-26T10:58:53.872Z,0.98
2022-07-26T11:01:41.319Z,0.82
2022-07-26T11:04:42.457Z,0.90
2022-07-26T11:07:19.942Z,1.20
2022-07-26T11:09:56.020Z,0.93
2022-07-26T11:12:27.064Z,1.23
2022-07-26T11:14:57.339Z,1.02
2022-07-26T11:17:34.743Z,1.00
2022-07-26T11:20:01.684Z,1.10
2022-07-26T11:22:33.134Z,1.00
2022-07-26T11:25:02.621Z,0.90
2022-07-26T11:27:31.892Z,1.10
2022-07-26T11:30:10.211Z,1.10
2022-07-26T11:32:39.477Z,0.80
2022-07-26T11:35:12.343Z,1.17
2022-07-26T11:38:05.100Z,0.82
2022-07-26T11:40:47.480Z,1.05
2022-07-26T11:43:16.576Z,1.10
2022-07-26T11:45:45.072Z,1.10
2022-07-26T11:48:13.989Z,0.83
2022-07-26T11:50:49.943Z,0.93
2022-07-26T11:53:23.884Z,1.10
2022-07-26T11:55:50.454Z,1.10
2022-07-26T11:58:17.132Z,1.38
2022-07-26T12:00:44.034Z,1.50
2022-07-26T12:03:10.764Z,1.00
2022-07-26T12:05:37.529Z,1.20
2022-07-26T12:08:07.216Z,1.23
2022-07-26T12:10:34.185Z,1.40
2022-07-26T12:13:15.643Z,1.13
2022-07-26T12:15:51.827Z,1.30
2022-07-26T12:18:26.579Z,1.50
2022-07-26T12:21:04.153Z,1.30
2022-07-26T12:23:46.337Z,1.20
2022-07-26T12:26:24.247Z,1.37
2022-07-26T12:28:50.948Z,1.20
2022-07-26T12:31:23.821Z,1.15
2022-07-26T12:33:51.587Z,1.17
2022-07-26T12:36:27.977Z,0.90
2022-07-26T12:39:00.173Z,1.03
2022-07-26T12:41:38.468Z,1.00
2022-07-26T12:44:13.177Z,1.02
2022-07-26T12:46:40.162Z,1.25
2022-07-26T12:49:09.809Z,1.30
2022-07-26T12:51:37.161Z,1.00
2022-07-26T12:54:09.487Z,1.20
2022-07-26T12:56:36.328Z,1.30
2022-07-26T12:59:03.274Z,1.40
2022-07-26T13:01:31.394Z,1.40
2022-07-26T13:03:58.562Z,2.23
2022-07-26T13:06:25.248Z,6.68
2022-07-26T13:08:51.987Z,1.50
2022-07-26T13:11:18.638Z,1.55
2022-07-26T13:13:45.282Z,1.48
2022-07-26T13:16:14.336Z,1.67
2022-07-26T13:18:40.935Z,1.80
2022-07-26T13:21:12.487Z,1.67
2022-07-26T13:23:39.193Z,1.42
2022-07-26T13:26:09.563Z,2.00
2022-07-26T13:28:37.352Z,1.30
2022-07-26T13:31:04.373Z,1.60
2022-07-26T13:33:34.951Z,1.70
2022-07-26T13:36:16.296Z,1.70
2022-07-26T13:38:49.590Z,1.75
2022-07-26T13:41:32.507Z,1.40
2022-07-26T13:44:03.057Z,1.58
2022-07-26T13:46:43.202Z,1.73
2022-07-26T13:49:13.861Z,1.67
2022-07-26T13:52:03.602Z,2.00
2022-07-26T13:54:42.343Z,1.90
2022-07-26T13:57:12.175Z,1.88
2022-07-26T13:59:46.581Z,2.03
2022-07-26T14:02:16.250Z,1.55
2022-07-26T14:04:48.549Z,1.38
2022-07-26T14:07:15.493Z,1.63
2022-07-26T14:09:42.837Z,1.50
2022-07-26T14:12:26.969Z,2.00
2022-07-26T14:14:58.268Z,1.40
2022-07-26T14:17:35.659Z,1.98
2022-07-26T14:20:14.023Z,2.03
2022-07-26T14:23:02.898Z,2.00
2022-07-26T14:25:38.161Z,1.92
2022-07-26T14:28:14.178Z,2.20
2022-07-26T14:30:41.113Z,2.00
2022-07-26T14:33:08.923Z,1.27
2022-07-26T14:35:38.637Z,1.88
2022-07-26T14:38:20.282Z,1.80
2022-07-26T14:40:53.942Z,1.65
2022-07-26T14:43:26.881Z,1.75
2022-07-26T14:45:53.675Z,1.73
2022-07-26T14:48:44.285Z,1.40
2022-07-26T14:51:10.375Z,1.83
2022-07-26T14:53:37.258Z,1.35
2022-07-26T14:56:04.281Z,2.10
2022-07-26T14:58:32.609Z,3.30
2022-07-26T15:00:59.477Z,2.10
2022-07-26T15:03:26.236Z,1.45
2022-07-26T15:05:53.015Z,1.30
2022-07-26T15:08:19.598Z,1.30
2022-07-26T15:10:46.244Z,1.20
2022-07-26T15:13:15.184Z,1.23
2022-07-26T15:15:42.192Z,1.77
2022-07-26T15:18:08.920Z,1.10
2022-07-26T15:20:46.294Z,1.00
2022-07-26T15:23:15.258Z,1.20
2022-07-26T15:25:53.668Z,1.05
2022-07-26T15:28:20.243Z,1.20
2022-07-26T15:30:46.889Z,0.90
2022-07-26T15:33:14.644Z,1.30
2022-07-26T15:35:51.666Z,0.88
2022-07-26T15:38:18.225Z,1.20
2022-07-26T15:40:44.833Z,1.40
2022-07-26T15:43:11.476Z,0.90
2022-07-26T15:45:41.038Z,1.20
2022-07-26T15:48:16.031Z,1.10
2022-07-26T15:50:47.300Z,1.17
2022-07-26T15:53:15.673Z,1.52
2022-07-26T15:55:42.445Z,1.88
2022-07-26T15:58:09.482Z,1.63
2022-07-26T16:00:36.127Z,1.73
2022-07-26T16:03:02.851Z,1.60
2022-07-26T16:05:29.621Z,1.67
2022-07-26T16:07:56.169Z,1.45
2022-07-26T16:10:22.759Z,1.90
2022-07-26T16:12:49.348Z,1.93
2022-07-26T16:15:16.005Z,1.70
2022-07-26T16:17:42.857Z,1.48
2022-07-26T16:20:10.031Z,1.52
2022-07-26T16:22:40.747Z,1.40
2022-07-26T16:25:13.615Z,1.57
2022-07-26T16:27:44.385Z,2.17
2022-07-26T16:30:15.837Z,1.80
2022-07-26T16:32:43.056Z,1.95
2022-07-26T16:35:10.043Z,1.50
2022-07-26T16:37:36.611Z,1.50
2022-07-26T16:40:07.633Z,2.17
2022-07-26T16:42:34.396Z,1.33
2022-07-26T16:45:00.988Z,1.35
2022-07-26T16:47:27.609Z,1.45
2022-07-26T16:49:54.289Z,1.53
2022-07-26T16:52:21.010Z,1.50
2022-07-26T16:54:47.552Z,1.52
2022-07-26T16:57:14.108Z,1.70
2022-07-26T16:59:40.675Z,1.45
2022-07-26T17:02:09.150Z,1.30
2022-07-26T17:04:36.277Z,1.35
2022-07-26T17:07:23.884Z,1.25
2022-07-26T17:09:50.160Z,1.50
2022-07-26T17:12:16.879Z,1.30
2022-07-26T17:14:43.791Z,1.93
2022-07-26T17:17:10.429Z,1.50
2022-07-26T17:19:37.182Z,1.73
2022-07-26T17:22:03.920Z,1.40
2022-07-26T17:24:30.445Z,1.80
2022-07-26T17:27:00.903Z,1.17
2022-07-26T17:29:27.519Z,1.55
2022-07-26T17:31:55.079Z,1.60
2022-07-26T17:34:21.708Z,1.95
2022-07-26T17:36:55.955Z,1.70
2022-07-26T17:39:25.686Z,1.80
2022-07-26T17:42:12.274Z,1.55
2022-07-26T17:44:41.853Z,1.50
2022-07-26T17:47:27.862Z,1.40
2022-07-26T17:49:57.007Z,2.03
2022-07-26T17:52:23.788Z,1.20
2022-07-26T17:54:50.790Z,2.05
2022-07-26T17:57:17.390Z,1.65
2022-07-26T17:59:51.562Z,1.40
2022-07-26T18:02:18.400Z,1.20
2022-07-26T18:04:45.630Z,1.23
2022-07-26T18:07:12.263Z,1.27
2022-07-26T18:09:38.893Z,1.17
2022-07-26T18:12:08.868Z,1.60
2022-07-26T18:14:35.509Z,1.20
2022-07-26T18:17:02.125Z,1.30
2022-07-26T18:19:30.542Z,1.10
2022-07-26T18:21:57.141Z,1.10
2022-07-26T18:24:23.715Z,1.13
2022-07-26T18:26:50.378Z,1.33
2022-07-26T18:29:17.083Z,1.50
2022-07-26T18:31:43.742Z,1.63
2022-07-26T18:34:10.352Z,1.10
2022-07-26T18:36:37.334Z,1.42
2022-07-26T18:39:07.753Z,2.20
2022-07-26T18:41:34.563Z,1.37
2022-07-26T18:44:01.168Z,1.70
2022-07-26T18:46:27.992Z,1.10
2022-07-26T18:48:56.296Z,1.33
2022-07-26T18:51:23.882Z,1.42
2022-07-26T18:53:53.337Z,1.53
2022-07-26T18:56:20.480Z,1.08
2022-07-26T18:58:47.101Z,1.20
2022-07-26T19:01:13.811Z,1.83
2022-07-26T19:03:40.455Z,1.17
2022-07-26T19:06:09.178Z,1.40
2022-07-26T19:08:35.784Z,1.30
2022-07-26T19:11:02.414Z,1.13
2022-07-26T19:13:29.091Z,1.00
2022-07-26T19:15:56.172Z,1.52
2022-07-26T19:18:22.811Z,1.50
2022-07-26T19:20:49.396Z,1.13
2022-07-26T19:23:16.059Z,1.08
2022-07-26T19:25:42.787Z,1.27
2022-07-26T19:28:09.447Z,1.20
2022-07-26T19:30:36.509Z,1.10
2022-07-26T19:33:03.455Z,1.02
2022-07-26T19:35:30.512Z,1.00
2022-07-26T19:37:57.100Z,1.10
2022-07-26T19:40:24.062Z,0.80
2022-07-26T19:42:50.687Z,1.33
2022-07-26T19:45:17.487Z,1.00
2022-07-26T19:47:44.307Z,1.00
2022-07-26T19:50:11.864Z,1.20
2022-07-26T19:52:39.450Z,0.98
2022-07-26T19:55:09.215Z,0.97
2022-07-26T19:57:36.226Z,0.90
2022-07-26T20:00:08.710Z,1.38
2022-07-26T20:02:35.349Z,1.00
2022-07-26T20:05:02.066Z,0.88
2022-07-26T20:07:28.682Z,1.17
2022-07-26T20:09:57.822Z,2.67
2022-07-26T20:12:24.391Z,1.20
2022-07-26T20:14:51.284Z,1.10
2022-07-26T20:17:17.948Z,0.90
2022-07-26T20:19:45.003Z,1.10
2022-07-26T20:22:11.762Z,1.20
2022-07-26T20:24:38.858Z,1.40
2022-07-26T20:27:08.874Z,1.00
2022-07-26T20:29:35.909Z,1.20
2022-07-26T20:32:02.887Z,1.20
2022-07-26T20:34:29.884Z,1.20
2022-07-26T20:36:59.306Z,1.13
2022-07-26T20:39:27.796Z,1.00
2022-07-26T20:41:54.521Z,1.15
2022-07-26T20:44:27.970Z,1.07
2022-07-26T20:46:56.142Z,1.10
2022-07-26T20:49:22.775Z,1.00
2022-07-26T20:51:49.452Z,1.02
2022-07-26T20:54:16.054Z,1.10
2022-07-26T20:56:43.186Z,1.10
2022-07-26T20:59:10.193Z,0.98
2022-07-26T21:01:37.832Z,0.90
2022-07-26T21:04:07.398Z,2.00
2022-07-26T21:06:34.028Z,1.20
2022-07-26T21:09:00.766Z,1.10
2022-07-26T21:11:36.091Z,0.70
2022-07-26T21:14:02.656Z,1.20
2022-07-26T21:16:29.301Z,1.15
2022-07-26T21:18:57.345Z,1.25
2022-07-26T21:21:24.149Z,0.87
2022-07-26T21:23:50.887Z,1.20
2022-07-26T21:26:17.790Z,1.00
2022-07-26T21:28:44.321Z,1.48
2022-07-26T21:31:10.882Z,1.10
2022-07-26T21:33:37.531Z,0.90
2022-07-26T21:36:07.605Z,1.08
2022-07-26T21:38:34.221Z,1.10
2022-07-26T21:41:00.848Z,1.20
2022-07-26T21:43:27.488Z,1.70
2022-07-26T21:45:54.104Z,1.37
2022-07-26T21:48:21.434Z,1.50
2022-07-26T21:50:48.093Z,1.50
2022-07-26T21:53:14.723Z,1.17
2022-07-26T21:55:42.808Z,1.23
2022-07-26T21:58:09.413Z,1.27
2022-07-26T22:00:36.769Z,1.33
2022-07-26T22:03:04.074Z,1.17
2022-07-26T22:05:39.844Z,1.20
2022-07-26T22:08:15.935Z,1.35
2022-07-26T22:10:45.138Z,1.10
2022-07-26T22:13:13.049Z,1.05
2022-07-26T22:15:39.754Z,1.60
2022-07-26T22:18:08.837Z,0.98
2022-07-26T22:20:36.430Z,1.08
2022-07-26T22:23:05.747Z,1.13
2022-07-26T22:25:33.457Z,1.10
2022-07-26T22:28:01.145Z,0.77
2022-07-26T22:30:28.694Z,1.13
2022-07-26T22:32:57.771Z,1.05
2022-07-26T22:35:25.974Z,1.00
2022-07-26T22:38:04.197Z,1.25
2022-07-26T22:40:30.801Z,1.50
2022-07-26T22:42:59.027Z,0.98
2022-07-26T22:45:26.856Z,1.27
2022-07-26T22:47:55.882Z,1.00
2022-07-26T22:50:24.932Z,1.77
2022-07-26T22:52:52.454Z,1.10
2022-07-26T22:55:19.575Z,1.23
2022-07-26T22:57:46.615Z,1.50
2022-07-26T23:00:20.236Z,1.10
2022-07-26T23:02:47.339Z,0.82
2022-07-26T23:05:15.753Z,1.08
2022-07-26T23:07:42.873Z,1.23
2022-07-26T23:10:13.091Z,1.23
2022-07-26T23:12:39.711Z,0.73
2022-07-26T23:15:10.092Z,1.00
2022-07-26T23:17:37.545Z,0.98
2022-07-26T23:20:08.826Z,1.33
2022-07-26T23:22:35.605Z,1.10
2022-07-26T23:25:02.243Z,1.10
2022-07-26T23:27:28.840Z,0.60
2022-07-26T23:29:55.552Z,0.95
2022-07-26T23:32:22.142Z,0.82
2022-07-26T23:34:48.749Z,1.17
2022-07-26T23:37:15.718Z,1.00
2022-07-26T23:39:42.426Z,1.00
2022-07-26T23:42:09.029Z,0.90
2022-07-26T23:44:35.872Z,0.90
2022-07-26T23:47:02.537Z,1.20
2022-07-26T23:49:29.527Z,1.40
2022-07-26T23:51:56.210Z,1.23
2022-07-26T23:54:22.882Z,1.20
2022-07-26T23:56:49.548Z,1.10
2022-07-26T23:59:16.204Z,1.02
